createdAt,value
2023-04-24T00:01:40.328Z,4.87
2023-04-24T00:07:33.994Z,4.93
2023-04-24T00:13:29.869Z,5.20
2023-04-24T00:19:23.665Z,5.50
2023-04-24T00:25:17.119Z,4.53
2023-04-24T00:31:11.942Z,5.20
2023-04-24T00:37:04.984Z,5.50
2023-04-24T00:42:58.523Z,4.60
2023-04-24T00:48:52.941Z,6.13
2023-04-24T00:54:46.182Z,6.60
2023-04-24T01:00:40.133Z,4.97
2023-04-24T01:06:35.279Z,5.00
2023-04-24T01:12:29.369Z,4.97
2023-04-24T01:18:23.312Z,4.60
2023-04-24T01:24:20.410Z,4.60
2023-04-24T01:30:15.046Z,4.30
2023-04-24T01:36:09.083Z,4.70
2023-04-24T01:48:26.202Z,3.47
2023-04-24T01:54:19.171Z,3.50
2023-04-24T02:00:14.684Z,3.30
2023-04-24T02:06:08.252Z,3.40
2023-04-24T02:12:01.894Z,3.93
2023-04-24T02:17:56.809Z,3.13
2023-04-24T02:23:50.333Z,2.90
2023-04-24T02:29:44.121Z,2.87
2023-04-24T02:35:39.241Z,3.10
2023-04-24T02:41:33.657Z,2.60
2023-04-24T02:47:27.219Z,2.50
2023-04-24T02:53:22.062Z,2.03
2023-04-24T02:59:15.563Z,3.60
2023-04-24T03:05:10.342Z,1.63
2023-04-24T03:11:04.688Z,1.43
2023-04-24T03:16:58.144Z,2.37
2023-04-24T03:22:51.546Z,1.60
2023-04-24T03:28:46.287Z,1.40
2023-04-24T03:34:39.740Z,1.37
2023-04-24T03:40:35.417Z,1.70
2023-04-24T03:46:32.056Z,1.20
2023-04-24T03:52:28.099Z,1.33
2023-04-24T03:58:22.072Z,1.27
2023-04-24T04:04:18.426Z,1.33
2023-04-24T04:10:13.260Z,1.40
2023-04-24T04:16:06.746Z,1.40
2023-04-24T04:22:01.199Z,1.80
2023-04-24T04:28:03.448Z,1.20
2023-04-24T04:33:57.109Z,1.20
2023-04-24T04:39:52.121Z,1.70
2023-04-24T04:45:49.359Z,1.00
2023-04-24T04:52:01.394Z,1.20
2023-04-24T04:57:58.234Z,1.50
2023-04-24T05:03:51.505Z,1.07
2023-04-24T05:09:46.188Z,1.20
2023-04-24T05:15:41.514Z,1.23
2023-04-24T05:21:34.660Z,2.20
2023-04-24T05:27:27.974Z,1.40
2023-04-24T05:33:23.041Z,1.43
2023-04-24T05:39:17.392Z,1.60
2023-04-24T05:45:16.211Z,1.57
2023-04-24T05:51:12.123Z,1.30
2023-04-24T05:57:08.467Z,1.43
2023-04-24T06:03:15.718Z,1.33
2023-04-24T06:09:10.676Z,2.50
2023-04-24T06:15:03.820Z,1.67
2023-04-24T06:21:14.962Z,1.43
2023-04-24T06:27:10.038Z,1.37
2023-04-24T06:33:16.891Z,1.10
2023-04-24T06:39:13.245Z,1.37
2023-04-24T06:45:08.387Z,1.53
2023-04-24T06:51:01.877Z,1.40
2023-04-24T06:56:55.572Z,1.57
2023-04-24T07:02:49.999Z,1.40
2023-04-24T07:08:44.599Z,1.73
2023-04-24T07:14:38.100Z,2.13
2023-04-24T07:20:32.870Z,1.83
2023-04-24T07:26:26.411Z,1.87
2023-04-24T07:32:19.844Z,1.97
2023-04-24T07:38:14.250Z,1.97
2023-04-24T07:44:07.454Z,2.30
2023-04-24T07:50:01.179Z,2.33
2023-04-24T07:55:56.949Z,2.57
2023-04-24T08:01:49.884Z,2.17
2023-04-24T08:07:44.033Z,2.60
2023-04-24T08:13:38.717Z,2.60
2023-04-24T08:19:31.815Z,2.73
2023-04-24T08:25:25.683Z,3.63
2023-04-24T08:31:20.578Z,3.37
2023-04-24T08:37:13.878Z,3.23
2023-04-24T08:43:07.588Z,4.40
2023-04-24T08:49:02.757Z,3.70
2023-04-24T08:54:57.353Z,4.57
2023-04-24T09:00:51.110Z,4.40
2023-04-24T09:06:46.306Z,5.27
2023-04-24T09:12:39.366Z,6.00
2023-04-24T09:18:32.854Z,4.67
2023-04-24T09:24:27.275Z,4.70
2023-04-24T09:30:24.188Z,4.53
2023-04-24T09:36:20.356Z,4.50
2023-04-24T09:42:15.185Z,4.23
2023-04-24T09:48:12.179Z,4.90
2023-04-24T09:54:06.135Z,4.90
2023-04-24T10:00:01.331Z,5.00
2023-04-24T10:06:10.345Z,5.03
2023-04-24T10:12:04.198Z,4.90
2023-04-24T10:18:00.833Z,4.63
2023-04-24T10:23:54.559Z,4.20
2023-04-24T10:29:49.525Z,6.37
2023-04-24T10:35:47.099Z,6.47
2023-04-24T10:41:41.208Z,6.50
2023-04-24T10:47:42.160Z,6.50
2023-04-24T10:53:37.956Z,8.10
2023-04-24T10:59:38.794Z,7.93
2023-04-24T11:05:53.230Z,8.00
2023-04-24T11:11:49.326Z,7.90
2023-04-24T11:17:44.835Z,8.80
2023-04-24T11:23:39.057Z,8.23
2023-04-24T11:29:45.200Z,8.23
2023-04-24T11:35:42.418Z,7.93
2023-04-24T11:41:36.061Z,7.40
2023-04-24T11:47:35.008Z,6.67
2023-04-24T11:53:28.176Z,6.57
2023-04-24T11:59:21.209Z,6.43
2023-04-24T12:05:23.979Z,6.70
2023-04-24T12:11:19.825Z,6.33
2023-04-24T12:17:12.857Z,6.30
2023-04-24T12:23:07.164Z,9.30
2023-04-24T12:29:05.327Z,7.33
2023-04-24T12:34:58.755Z,5.93
2023-04-24T12:41:05.513Z,4.13
2023-04-24T12:46:59.163Z,4.90
2023-04-24T12:52:52.238Z,5.23
2023-04-24T12:58:46.621Z,5.40
2023-04-24T13:04:39.771Z,4.90
2023-04-24T13:10:33.233Z,3.50
2023-04-24T13:16:27.975Z,3.53
2023-04-24T13:22:20.947Z,3.30
2023-04-24T13:28:13.891Z,4.00
2023-04-24T13:34:08.700Z,4.07
2023-04-24T13:40:01.700Z,3.90
2023-04-24T13:45:55.336Z,5.10
2023-04-24T13:51:50.300Z,4.80
2023-04-24T13:57:43.309Z,6.03
2023-04-24T14:03:37.092Z,5.10
2023-04-24T14:09:31.576Z,3.23
2023-04-24T14:15:24.541Z,3.50
2023-04-24T14:21:17.979Z,3.43
2023-04-24T14:27:12.759Z,3.07
2023-04-24T14:33:06.298Z,3.43
2023-04-24T14:38:59.370Z,2.97
2023-04-24T14:44:53.752Z,3.50
2023-04-24T14:50:47.206Z,3.83
2023-04-24T14:56:41.836Z,3.10
2023-04-24T15:02:38.997Z,3.10
2023-04-24T15:08:32.179Z,3.13
2023-04-24T15:14:25.181Z,3.33
2023-04-24T15:20:20.321Z,4.80
2023-04-24T15:26:13.267Z,6.30
2023-04-24T15:32:08.882Z,7.00
2023-04-24T15:38:05.565Z,5.90
2023-04-24T15:43:58.533Z,5.87
2023-04-24T15:49:51.502Z,3.73
2023-04-24T15:55:46.026Z,2.90
2023-04-24T16:01:39.262Z,1.87
2023-04-24T16:07:33.111Z,2.53
2023-04-24T16:13:29.060Z,3.10
2023-04-24T16:19:22.147Z,3.47
2023-04-24T16:25:15.441Z,4.20
2023-04-24T16:31:10.643Z,4.77
2023-04-24T16:37:04.432Z,3.70
2023-04-24T16:42:57.852Z,4.80
2023-04-24T16:48:52.302Z,4.03
2023-04-24T16:54:45.457Z,3.60
2023-04-24T17:00:38.630Z,3.80
2023-04-24T17:06:33.644Z,4.30
2023-04-24T17:12:26.662Z,3.27
2023-04-24T17:18:20.810Z,3.67
2023-04-24T17:24:15.136Z,3.00
2023-04-24T17:30:09.793Z,3.80
2023-04-24T17:36:02.895Z,3.37
2023-04-24T17:41:57.202Z,4.07
2023-04-24T17:47:51.700Z,6.83
2023-04-24T17:53:44.767Z,4.53
2023-04-24T17:59:39.589Z,5.57
2023-04-24T18:05:33.851Z,6.50
2023-04-24T18:11:27.698Z,6.10
2023-04-24T18:17:21.972Z,4.87
2023-04-24T18:23:15.385Z,6.87
2023-04-24T18:29:08.798Z,6.40
2023-04-24T18:35:03.753Z,5.47
2023-04-24T18:40:57.585Z,4.73
2023-04-24T18:46:50.891Z,8.87
2023-04-24T18:52:45.261Z,4.53
2023-04-24T18:58:38.638Z,3.37
2023-04-24T19:04:32.194Z,4.93
2023-04-24T19:10:27.617Z,3.03
2023-04-24T19:16:20.760Z,3.90
2023-04-24T19:22:13.820Z,2.87
2023-04-24T19:28:09.251Z,3.30
2023-04-24T19:34:02.694Z,3.33
2023-04-24T19:39:55.748Z,2.80
2023-04-24T19:45:50.926Z,2.70
2023-04-24T19:51:44.452Z,4.43
2023-04-24T19:57:38.133Z,5.20
2023-04-24T20:03:34.319Z,3.30
2023-04-24T20:09:28.384Z,6.40
2023-04-24T20:15:22.636Z,5.50
2023-04-24T20:21:16.996Z,4.20
2023-04-24T20:27:10.630Z,6.57
2023-04-24T20:33:04.165Z,7.33
2023-04-24T20:38:59.992Z,8.23
2023-04-24T20:44:53.405Z,7.37
2023-04-24T20:50:46.911Z,6.40
2023-04-24T20:56:41.702Z,6.00
2023-04-24T21:02:35.274Z,5.60
2023-04-24T21:08:28.331Z,7.33
2023-04-24T21:14:22.686Z,6.00
2023-04-24T21:20:16.380Z,6.77
2023-04-24T21:26:09.874Z,5.13
2023-04-24T21:32:04.751Z,5.83
2023-04-24T21:37:58.533Z,4.97
2023-04-24T21:43:52.279Z,5.43
2023-04-24T21:49:47.400Z,5.70
2023-04-24T21:55:40.510Z,6.60
2023-04-24T22:01:34.226Z,3.87
2023-04-24T22:07:28.798Z,4.77
2023-04-24T22:13:22.252Z,6.50
2023-04-24T22:19:15.899Z,4.50
2023-04-24T22:25:11.431Z,4.20
2023-04-24T22:31:05.216Z,4.50
2023-04-24T22:36:58.206Z,4.47
2023-04-24T22:42:53.280Z,3.83
2023-04-24T22:48:48.676Z,8.40
2023-04-24T22:54:41.812Z,7.40
2023-04-24T23:00:36.650Z,4.70
2023-04-24T23:06:30.844Z,5.30
2023-04-24T23:12:24.439Z,7.67
2023-04-24T23:18:19.643Z,6.93
2023-04-24T23:24:12.674Z,7.00
2023-04-24T23:30:08.207Z,5.57
2023-04-24T23:36:02.977Z,4.90
2023-04-24T23:41:56.330Z,6.60
2023-04-24T23:47:49.316Z,7.27
2023-04-24T23:53:44.119Z,8.93
2023-04-24T23:59:37.509Z,5.60
